createdAt,value
2019-01-03T00:01:36.227Z,102946.16
2019-01-03T00:04:33.901Z,102945.22
2019-01-03T00:07:31.023Z,102946.35
2019-01-03T00:10:23.713Z,102946.80
2019-01-03T00:13:18.193Z,102944.09
2019-01-03T00:16:07.922Z,102949.50
2019-01-03T00:19:04.073Z,102941.53
2019-01-03T00:21:53.540Z,102940.38
2019-01-03T00:24:41.418Z,102937.30
2019-01-03T00:27:45.137Z,102944.64
2019-01-03T00:30:39.328Z,102942.66
2019-01-03T00:33:28.084Z,102955.05
2019-01-03T00:36:14.818Z,102947.56
2019-01-03T00:39:14.084Z,102944.91
2019-01-03T00:42:11.207Z,102952.69
2019-01-03T00:45:05.878Z,102950.91
2019-01-03T00:48:09.624Z,102958.57
2019-01-03T00:51:10.305Z,102964.39
2019-01-03T00:53:58.438Z,102963.33
2019-01-03T00:57:02.446Z,102971.92
2019-01-03T01:00:10.071Z,102973.68
2019-01-03T01:02:53.681Z,102971.12
2019-01-03T01:05:40.893Z,102976.66
2019-01-03T01:08:28.310Z,102976.66
2019-01-03T01:11:26.126Z,102983.63
2019-01-03T01:14:13.802Z,102978.63
2019-01-03T01:17:06.104Z,102983.36
2019-01-03T01:19:52.341Z,102984.79
2019-01-03T01:22:55.910Z,102980.70
2019-01-03T01:25:59.419Z,102987.11
2019-01-03T01:28:41.953Z,102989.22
2019-01-03T01:31:29.219Z,102985.30
2019-01-03T01:34:23.498Z,102980.71
2019-01-03T01:37:17.721Z,102988.38
2019-01-03T01:40:09.442Z,102990.72
2019-01-03T01:42:56.272Z,102984.14
2019-01-03T01:45:56.522Z,102998.73
2019-01-03T01:48:43.647Z,102999.50
2019-01-03T01:51:31.936Z,102999.63
2019-01-03T01:54:28.729Z,102995.70
2019-01-03T01:57:17.256Z,102987.95
2019-01-03T02:00:04.310Z,102982.82
2019-01-03T02:03:05.083Z,102982.63
2019-01-03T02:05:52.539Z,102982.58
2019-01-03T02:08:39.372Z,102979.46
2019-01-03T02:11:36.624Z,102981.53
2019-01-03T02:14:23.616Z,102982.27
2019-01-03T02:17:11.898Z,102974.06
2019-01-03T02:19:58.673Z,102978.34
2019-01-03T02:22:52.834Z,102987.17
2019-01-03T02:25:43.738Z,102981.61
2019-01-03T02:28:34.866Z,102978.89
2019-01-03T02:31:21.717Z,102990.16
2019-01-03T02:34:13.293Z,102982.09
2019-01-03T02:37:07.390Z,102987.05
2019-01-03T02:39:50.010Z,102984.79
2019-01-03T02:42:42.867Z,102980.78
2019-01-03T02:45:25.070Z,102982.69
2019-01-03T02:48:12.009Z,102978.37
2019-01-03T02:51:04.758Z,102978.45
2019-01-03T02:54:11.822Z,102966.42
2019-01-03T02:56:58.602Z,102966.91
2019-01-03T02:59:55.345Z,102973.04
2019-01-03T03:02:46.712Z,102977.69
2019-01-03T03:05:33.770Z,102972.33
2019-01-03T03:08:24.706Z,102980.89
2019-01-03T03:11:11.774Z,102975.13
2019-01-03T03:13:58.861Z,102967.47
2019-01-03T03:17:05.521Z,102964.77
2019-01-03T03:19:52.214Z,102969.00
2019-01-03T03:22:38.985Z,102962.66
2019-01-03T03:25:28.741Z,102963.38
2019-01-03T03:28:16.762Z,102962.66
2019-01-03T03:31:03.828Z,102960.77
2019-01-03T03:33:50.597Z,102963.02
2019-01-03T03:36:56.967Z,102965.13
2019-01-03T03:39:44.192Z,102972.87
2019-01-03T03:42:38.524Z,102975.48
2019-01-03T03:45:28.791Z,102963.55
2019-01-03T03:48:12.456Z,102964.32
2019-01-03T03:51:00.737Z,102967.52
2019-01-03T03:54:06.405Z,102965.84
2019-01-03T03:57:09.695Z,102967.06
2019-01-03T03:59:56.758Z,102963.19
2019-01-03T04:02:43.497Z,102968.38
2019-01-03T04:05:47.196Z,102971.72
2019-01-03T04:08:36.847Z,102973.11
2019-01-03T04:11:37.635Z,102973.59
2019-01-03T04:14:37.732Z,102974.98
2019-01-03T04:17:32.697Z,102963.83
2019-01-03T04:20:30.361Z,102970.22
2019-01-03T04:23:36.865Z,102972.28
2019-01-03T04:26:31.039Z,102969.00
2019-01-03T04:29:35.486Z,102961.80
2019-01-03T04:32:23.911Z,102964.23
2019-01-03T04:35:21.455Z,102965.45
2019-01-03T04:38:09.541Z,102971.26
2019-01-03T04:41:16.086Z,102972.73
2019-01-03T04:44:13.398Z,102959.55
2019-01-03T04:47:08.209Z,102967.92
2019-01-03T04:49:58.569Z,102961.35
2019-01-03T04:52:53.028Z,102968.06
2019-01-03T04:55:53.500Z,102967.83
2019-01-03T04:58:50.146Z,102959.55
2019-01-03T05:02:14.165Z,102969.50
2019-01-03T05:05:02.924Z,102982.56
2019-01-03T05:07:57.505Z,102978.41
2019-01-03T05:10:48.560Z,102979.44
2019-01-03T05:13:35.598Z,102972.43
2019-01-03T05:16:35.891Z,102969.27
2019-01-03T05:19:23.264Z,102969.84
2019-01-03T05:22:10.220Z,102959.66
2019-01-03T05:24:57.773Z,102951.17
2019-01-03T05:27:44.675Z,102955.70
2019-01-03T05:30:31.990Z,102953.41
2019-01-03T05:33:19.066Z,102954.03
2019-01-03T05:36:16.376Z,102958.63
2019-01-03T05:39:03.140Z,102950.66
2019-01-03T05:41:50.055Z,102949.38
2019-01-03T05:44:41.193Z,102949.77
2019-01-03T05:47:30.069Z,102945.80
2019-01-03T05:50:17.229Z,102950.53
2019-01-03T05:53:03.937Z,102949.55
2019-01-03T05:56:07.623Z,102955.98
2019-01-03T05:58:54.674Z,102958.20
2019-01-03T06:01:42.183Z,102954.66
2019-01-03T06:04:29.350Z,102961.95
2019-01-03T06:07:18.064Z,102961.95
2019-01-03T06:10:15.224Z,102966.09
2019-01-03T06:12:59.003Z,102966.31
2019-01-03T06:16:05.407Z,102958.59
2019-01-03T06:18:59.394Z,102961.48
2019-01-03T06:21:50.949Z,102956.67
2019-01-03T06:24:42.475Z,102945.70
2019-01-03T06:27:36.794Z,102953.33
2019-01-03T06:30:40.400Z,102955.48
2019-01-03T06:33:28.554Z,102960.41
2019-01-03T06:36:43.457Z,102957.97
2019-01-03T06:39:39.226Z,102957.30
2019-01-03T06:42:46.548Z,102954.23
2019-01-03T06:45:53.308Z,102955.77
2019-01-03T06:49:00.127Z,102957.47
2019-01-03T06:51:46.766Z,102964.00
2019-01-03T06:54:53.019Z,102966.15
2019-01-03T06:57:41.248Z,102972.05
2019-01-03T07:00:44.630Z,102966.69
2019-01-03T07:03:29.355Z,102967.88
2019-01-03T07:06:32.818Z,102971.58
2019-01-03T07:09:40.036Z,102972.20
2019-01-03T07:12:18.259Z,102982.27
2019-01-03T07:15:06.840Z,102984.27
2019-01-03T07:17:53.819Z,102986.19
2019-01-03T07:20:48.292Z,102995.60
2019-01-03T07:23:55.077Z,103001.20
2019-01-03T07:26:41.752Z,103002.11
2019-01-03T07:29:28.469Z,103007.58
2019-01-03T07:32:16.598Z,102994.83
2019-01-03T07:35:16.835Z,103001.74
2019-01-03T07:38:03.682Z,103005.50
2019-01-03T07:40:58.450Z,103005.58
2019-01-03T07:43:45.583Z,103008.02
2019-01-03T07:46:32.740Z,103013.48
2019-01-03T07:49:19.842Z,103000.95
2019-01-03T07:52:17.298Z,102995.30
2019-01-03T07:55:15.027Z,103003.91
2019-01-03T07:58:12.509Z,103005.82
2019-01-03T08:00:59.900Z,103007.95
2019-01-03T08:03:46.963Z,103008.19
2019-01-03T08:06:33.666Z,103009.05
2019-01-03T08:09:34.606Z,103014.99
2019-01-03T08:12:31.695Z,103015.67
2019-01-03T08:15:26.116Z,103019.06
2019-01-03T08:18:14.225Z,103017.91
2019-01-03T08:21:05.378Z,103024.88
2019-01-03T08:23:52.425Z,103026.89
2019-01-03T08:26:44.259Z,103025.66
2019-01-03T08:29:31.729Z,103033.64
2019-01-03T08:32:14.398Z,103038.31
2019-01-03T08:35:00.020Z,103036.41
2019-01-03T08:37:47.235Z,103034.16
2019-01-03T08:40:39.140Z,103039.22
2019-01-03T08:43:42.438Z,103044.07
2019-01-03T08:46:39.896Z,103044.38
2019-01-03T08:49:24.416Z,103055.50
2019-01-03T08:52:15.789Z,103048.88
2019-01-03T08:55:03.253Z,103056.23
2019-01-03T08:57:54.456Z,103052.35
2019-01-03T09:00:41.227Z,103061.89
2019-01-03T09:03:29.589Z,103063.20
2019-01-03T09:06:16.803Z,103060.03
2019-01-03T09:09:09.303Z,103068.38
2019-01-03T09:11:50.473Z,103062.37
2019-01-03T09:14:37.268Z,103049.23
2019-01-03T09:17:28.245Z,103063.30
2019-01-03T09:20:34.851Z,103058.61
2019-01-03T09:23:20.149Z,103063.52
2019-01-03T09:26:08.234Z,103053.34
2019-01-03T09:28:49.512Z,103054.28
2019-01-03T09:31:49.899Z,103054.56
2019-01-03T09:34:44.114Z,103053.17
2019-01-03T09:37:32.543Z,103051.86
2019-01-03T09:40:36.026Z,103059.06
2019-01-03T09:43:24.168Z,103061.77
2019-01-03T09:45:53.361Z,103059.23
2019-01-03T09:48:22.862Z,103056.31
2019-01-03T09:50:52.235Z,103052.08
2019-01-03T09:53:21.989Z,103050.73
2019-01-03T09:55:51.194Z,103051.31
2019-01-03T09:58:20.658Z,103057.36
2019-01-03T10:00:50.272Z,103065.16
2019-01-03T10:03:19.907Z,103064.06
2019-01-03T10:05:49.098Z,103059.43
2019-01-03T10:08:19.660Z,103053.70
2019-01-03T10:10:49.032Z,103055.59
2019-01-03T10:13:18.516Z,103048.20
2019-01-03T10:15:47.790Z,103043.39
2019-01-03T10:18:16.988Z,103049.73
2019-01-03T10:20:46.144Z,103043.28
2019-01-03T10:23:15.513Z,103045.39
2019-01-03T10:25:44.705Z,103041.84
2019-01-03T10:28:13.837Z,103043.13
2019-01-03T10:30:43.427Z,103045.22
2019-01-03T10:33:13.234Z,103040.64
2019-01-03T10:35:42.708Z,103044.56
2019-01-03T10:38:13.130Z,103035.95
2019-01-03T10:40:42.597Z,103034.47
2019-01-03T10:43:12.084Z,103030.06
2019-01-03T10:45:41.642Z,103035.70
2019-01-03T10:48:11.187Z,103031.38
2019-01-03T10:50:40.407Z,103029.50
2019-01-03T10:53:10.464Z,103036.44
2019-01-03T10:55:40.163Z,103037.45
2019-01-03T10:58:09.400Z,103039.80
2019-01-03T11:00:42.502Z,103028.92
2019-01-03T11:03:12.015Z,103029.08
2019-01-03T11:05:41.598Z,103033.41
2019-01-03T11:08:11.300Z,103024.92
2019-01-03T11:10:40.480Z,103013.80
2019-01-03T11:13:09.616Z,103006.39
2019-01-03T11:15:39.036Z,103010.62
2019-01-03T11:18:08.439Z,103003.77
2019-01-03T11:20:37.978Z,103007.59
2019-01-03T11:23:07.448Z,103011.92
2019-01-03T11:25:36.635Z,103012.27
2019-01-03T11:28:06.071Z,103014.89
2019-01-03T11:30:35.613Z,103020.25
2019-01-03T11:33:05.508Z,103019.98
2019-01-03T11:35:34.692Z,103014.86
2019-01-03T11:38:03.879Z,103016.42
2019-01-03T11:40:33.058Z,103014.57
2019-01-03T11:43:02.579Z,103007.23
2019-01-03T11:45:32.089Z,103010.31
2019-01-03T11:48:01.701Z,103014.15
2019-01-03T11:50:31.244Z,103002.66
2019-01-03T11:53:00.739Z,103009.74
2019-01-03T11:55:30.235Z,103010.96
2019-01-03T11:57:59.676Z,103011.43
2019-01-03T12:00:28.851Z,103005.03
2019-01-03T12:02:58.408Z,102998.64
2019-01-03T12:05:27.592Z,102998.28
2019-01-03T12:07:57.136Z,102994.64
2019-01-03T12:10:26.461Z,102991.54
2019-01-03T12:12:56.414Z,102990.69
2019-01-03T12:15:25.920Z,102995.66
2019-01-03T12:17:55.125Z,102991.46
2019-01-03T12:20:24.663Z,102986.20
2019-01-03T12:22:54.200Z,102983.75
2019-01-03T12:25:25.355Z,102980.70
2019-01-03T12:27:54.599Z,102982.92
2019-01-03T12:30:24.123Z,102981.19
2019-01-03T12:32:53.308Z,102979.48
2019-01-03T12:35:22.719Z,102976.37
2019-01-03T12:37:51.899Z,102973.13
2019-01-03T12:40:21.739Z,102980.70
2019-01-03T12:42:51.285Z,102992.70
2019-01-03T12:45:20.440Z,102998.49
2019-01-03T12:47:49.896Z,103000.00
2019-01-03T12:50:19.159Z,103005.69
2019-01-03T12:52:48.350Z,102996.48
2019-01-03T12:55:17.534Z,102996.09
2019-01-03T12:57:47.082Z,103004.06
2019-01-03T13:00:16.637Z,102998.89
2019-01-03T13:02:46.575Z,103003.06
2019-01-03T13:05:15.819Z,103000.44
2019-01-03T13:07:45.353Z,102995.28
2019-01-03T13:10:14.818Z,102997.84
2019-01-03T13:12:44.304Z,102993.81
2019-01-03T13:15:13.934Z,102995.83
2019-01-03T13:17:43.420Z,102984.53
2019-01-03T13:20:12.640Z,102987.77
2019-01-03T13:22:41.776Z,102975.74
2019-01-03T13:25:10.981Z,102975.51
2019-01-03T13:27:40.138Z,102964.52
2019-01-03T13:30:11.292Z,102961.44
2019-01-03T13:32:40.776Z,102952.42
2019-01-03T13:35:10.263Z,102958.66
2019-01-03T13:37:39.475Z,102958.15
2019-01-03T13:40:09.652Z,102967.69
2019-01-03T13:42:39.619Z,102972.89
2019-01-03T13:45:08.781Z,102973.25
2019-01-03T13:47:38.004Z,102964.55
2019-01-03T13:50:08.169Z,102979.95
2019-01-03T13:52:37.626Z,102969.17
2019-01-03T13:55:06.768Z,102975.08
2019-01-03T13:57:35.935Z,102979.19
2019-01-03T14:00:05.976Z,102977.95
2019-01-03T14:02:35.444Z,102977.16
2019-01-03T14:05:05.263Z,102967.97
2019-01-03T14:07:35.194Z,102972.34
2019-01-03T14:10:04.906Z,102970.12
2019-01-03T14:12:34.406Z,102974.23
2019-01-03T14:15:03.640Z,102983.67
2019-01-03T14:17:33.125Z,102982.23
2019-01-03T14:20:02.303Z,102987.44
2019-01-03T14:22:31.909Z,102991.47
2019-01-03T14:25:01.435Z,102995.00
2019-01-03T14:27:31.034Z,102999.04
2019-01-03T14:30:00.440Z,103000.12
2019-01-03T14:32:29.550Z,103002.17
2019-01-03T14:34:59.338Z,103000.89
2019-01-03T14:37:28.699Z,103001.25
2019-01-03T14:39:58.343Z,103004.28
2019-01-03T14:42:27.513Z,103011.61
2019-01-03T14:44:57.048Z,103005.45
2019-01-03T14:47:26.601Z,103006.69
2019-01-03T14:49:55.776Z,103013.37
2019-01-03T14:52:25.543Z,103019.64
2019-01-03T14:54:54.976Z,103023.12
2019-01-03T14:57:24.545Z,103025.28
2019-01-03T14:59:54.085Z,103032.19
2019-01-03T15:02:23.295Z,103029.67
2019-01-03T15:04:52.442Z,103039.61
2019-01-03T15:07:22.023Z,103032.75
2019-01-03T15:09:51.197Z,103037.48
2019-01-03T15:12:20.703Z,103029.87
2019-01-03T15:14:49.867Z,103027.66
2019-01-03T15:17:19.622Z,103033.35
2019-01-03T15:19:49.102Z,103031.64
2019-01-03T15:22:18.288Z,103040.55
2019-01-03T15:24:47.554Z,103040.66
2019-01-03T15:27:17.049Z,103036.07
2019-01-03T15:29:46.391Z,103038.13
2019-01-03T15:32:15.835Z,103042.72
2019-01-03T15:34:45.044Z,103043.64
2019-01-03T15:37:14.532Z,103040.36
2019-01-03T15:39:43.969Z,103032.34
2019-01-03T15:42:13.201Z,103039.05
2019-01-03T15:44:42.849Z,103036.25
2019-01-03T15:47:12.153Z,103037.93
2019-01-03T15:49:41.302Z,103037.47
2019-01-03T15:52:10.888Z,103040.38
2019-01-03T15:54:40.075Z,103044.58
2019-01-03T15:57:09.283Z,103048.61
2019-01-03T15:59:38.419Z,103054.39
2019-01-03T16:02:07.666Z,103053.25
2019-01-03T16:04:37.180Z,103055.41
2019-01-03T16:07:06.796Z,103056.96
2019-01-03T16:09:35.940Z,103060.08
2019-01-03T16:12:05.170Z,103051.59
2019-01-03T16:14:34.686Z,103059.44
2019-01-03T16:17:03.813Z,103058.65
2019-01-03T16:19:33.042Z,103052.92
2019-01-03T16:22:02.605Z,103053.16
2019-01-03T16:24:32.153Z,103053.74
2019-01-03T16:27:01.323Z,103054.28
2019-01-03T16:29:30.911Z,103053.02
2019-01-03T16:32:00.394Z,103053.22
2019-01-03T16:34:29.536Z,103056.99
2019-01-03T16:36:59.327Z,103057.90
2019-01-03T16:39:28.919Z,103061.87
2019-01-03T16:41:58.748Z,103061.45
2019-01-03T16:44:28.101Z,103060.69
2019-01-03T16:46:57.660Z,103050.95
2019-01-03T16:49:26.783Z,103053.74
2019-01-03T16:51:56.750Z,103054.42
2019-01-03T16:54:26.014Z,103052.80
2019-01-03T16:56:55.349Z,103044.20
2019-01-03T16:59:24.563Z,103041.52
2019-01-03T17:01:53.819Z,103052.73
2019-01-03T17:04:23.359Z,103049.45
2019-01-03T17:06:52.892Z,103051.95
2019-01-03T17:09:22.782Z,103058.48
2019-01-03T17:11:53.058Z,103065.69
2019-01-03T17:14:22.337Z,103068.24
2019-01-03T17:16:51.519Z,103060.83
2019-01-03T17:19:20.907Z,103060.88
2019-01-03T17:21:50.659Z,103060.41
2019-01-03T17:24:20.527Z,103056.34
2019-01-03T17:26:50.658Z,103057.84
2019-01-03T17:29:20.366Z,103056.14
2019-01-03T17:31:50.129Z,103062.06
2019-01-03T17:34:19.890Z,103061.84
2019-01-03T17:36:49.739Z,103055.31
2019-01-03T17:39:20.236Z,103063.00
2019-01-03T17:41:50.055Z,103068.69
2019-01-03T17:44:19.998Z,103074.98
2019-01-03T17:46:50.053Z,103076.85
2019-01-03T17:49:19.594Z,103071.64
2019-01-03T17:51:48.759Z,103065.25
2019-01-03T17:54:17.941Z,103056.82
2019-01-03T17:56:47.236Z,103045.86
2019-01-03T17:59:16.755Z,103043.56
2019-01-03T18:01:47.827Z,103041.04
2019-01-03T18:04:19.002Z,103039.13
2019-01-03T18:06:48.371Z,103046.63
2019-01-03T18:09:17.696Z,103042.72
2019-01-03T18:11:49.032Z,103051.84
2019-01-03T18:14:18.492Z,103047.48
2019-01-03T18:16:47.873Z,103042.34
2019-01-03T18:19:18.707Z,103053.06
2019-01-03T18:21:51.055Z,103049.61
2019-01-03T18:24:20.869Z,103050.91
2019-01-03T18:26:51.203Z,103050.21
2019-01-03T18:29:20.487Z,103056.37
2019-01-03T18:31:53.459Z,103054.82
2019-01-03T18:34:23.028Z,103057.05
2019-01-03T18:36:52.808Z,103058.43
2019-01-03T18:39:22.585Z,103051.50
2019-01-03T18:41:52.035Z,103053.50
2019-01-03T18:44:21.647Z,103049.30
2019-01-03T18:46:51.708Z,103055.03
2019-01-03T18:49:21.656Z,103061.48
2019-01-03T18:51:51.853Z,103058.66
2019-01-03T18:54:21.403Z,103060.93
2019-01-03T18:56:50.817Z,103068.83
2019-01-03T18:59:20.272Z,103075.72
2019-01-03T19:01:49.734Z,103078.33
2019-01-03T19:04:18.918Z,103077.70
2019-01-03T19:06:48.111Z,103070.58
2019-01-03T19:09:17.324Z,103081.31
2019-01-03T19:11:46.783Z,103080.98
2019-01-03T19:14:16.355Z,103088.03
2019-01-03T19:16:46.244Z,103088.88
2019-01-03T19:19:15.499Z,103088.33
2019-01-03T19:21:46.386Z,103085.62
2019-01-03T19:24:15.581Z,103099.02
2019-01-03T19:26:45.117Z,103101.11
2019-01-03T19:29:14.324Z,103090.46
2019-01-03T19:31:44.072Z,103096.09
2019-01-03T19:34:13.271Z,103091.81
2019-01-03T19:36:42.727Z,103098.17
2019-01-03T19:39:11.903Z,103099.55
2019-01-03T19:41:41.403Z,103100.07
2019-01-03T19:44:10.915Z,103096.31
2019-01-03T19:46:41.925Z,103100.70
2019-01-03T19:49:11.248Z,103101.19
2019-01-03T19:51:40.448Z,103100.03
2019-01-03T19:54:10.803Z,103098.61
2019-01-03T19:56:40.193Z,103094.95
2019-01-03T19:59:09.693Z,103105.17
2019-01-03T20:01:41.220Z,103103.12
2019-01-03T20:04:10.872Z,103107.28
2019-01-03T20:06:40.289Z,103110.18
2019-01-03T20:09:09.833Z,103109.39
2019-01-03T20:11:39.480Z,103105.42
2019-01-03T20:14:08.727Z,103108.72
2019-01-03T20:16:38.178Z,103109.84
2019-01-03T20:19:08.329Z,103110.80
2019-01-03T20:21:38.328Z,103104.71
2019-01-03T20:24:07.944Z,103103.14
2019-01-03T20:26:37.754Z,103105.02
2019-01-03T20:29:07.182Z,103094.55
2019-01-03T20:31:36.343Z,103094.75
2019-01-03T20:34:05.736Z,103095.41
2019-01-03T20:36:35.017Z,103099.62
2019-01-03T20:39:05.571Z,103102.83
2019-01-03T20:41:35.280Z,103102.83
2019-01-03T20:44:04.445Z,103104.44
2019-01-03T20:46:33.771Z,103099.81
2019-01-03T20:49:03.054Z,103111.16
2019-01-03T20:51:32.963Z,103101.73
2019-01-03T20:54:02.388Z,103110.83
2019-01-03T20:56:31.606Z,103099.58
2019-01-03T20:59:02.114Z,103099.30
2019-01-03T21:01:32.063Z,103093.20
2019-01-03T21:04:01.204Z,103093.20
2019-01-03T21:06:30.772Z,103098.00
2019-01-03T21:09:00.179Z,103106.72
2019-01-03T21:11:29.709Z,103107.02
2019-01-03T21:13:58.902Z,103103.03
2019-01-03T21:16:28.047Z,103098.20
2019-01-03T21:18:57.252Z,103102.02
2019-01-03T21:21:26.971Z,103106.92
2019-01-03T21:23:56.674Z,103104.55
2019-01-03T21:26:26.279Z,103108.37
2019-01-03T21:28:55.777Z,103114.74
2019-01-03T21:31:25.314Z,103109.32
2019-01-03T21:33:54.830Z,103117.95
2019-01-03T21:36:24.735Z,103112.75
2019-01-03T21:38:53.887Z,103114.63
2019-01-03T21:41:23.728Z,103113.73
2019-01-03T21:43:53.197Z,103106.34
2019-01-03T21:46:22.365Z,103104.05
2019-01-03T21:48:53.195Z,103099.94
2019-01-03T21:51:22.447Z,103100.53
2019-01-03T21:53:52.306Z,103101.80
2019-01-03T21:56:21.458Z,103092.16
2019-01-03T21:58:50.672Z,103090.62
2019-01-03T22:01:19.840Z,103088.25
2019-01-03T22:03:49.057Z,103094.68
2019-01-03T22:06:18.574Z,103088.16
2019-01-03T22:08:47.743Z,103094.68
2019-01-03T22:11:17.211Z,103087.75
2019-01-03T22:13:46.501Z,103085.02
2019-01-03T22:16:15.714Z,103080.87
2019-01-03T22:18:45.081Z,103082.48
2019-01-03T22:21:14.226Z,103085.86
2019-01-03T22:23:43.722Z,103078.36
2019-01-03T22:26:13.262Z,103082.72
2019-01-03T22:28:42.476Z,103066.41
2019-01-03T22:31:12.242Z,103058.41
2019-01-03T22:33:41.396Z,103063.41
2019-01-03T22:36:12.040Z,103064.05
2019-01-03T22:38:41.567Z,103066.41
2019-01-03T22:41:10.720Z,103066.50
2019-01-03T22:43:40.409Z,103068.56
2019-01-03T22:46:09.564Z,103059.31
2019-01-03T22:48:38.753Z,103060.92
2019-01-03T22:51:09.751Z,103052.94
2019-01-03T22:53:39.250Z,103049.61
2019-01-03T22:56:08.407Z,103043.13
2019-01-03T22:58:37.841Z,103048.73
2019-01-03T23:01:08.154Z,103050.09
2019-01-03T23:03:37.305Z,103042.36
2019-01-03T23:06:06.660Z,103045.27
2019-01-03T23:08:36.198Z,103046.83
2019-01-03T23:11:05.702Z,103057.16
2019-01-03T23:13:35.180Z,103062.61
2019-01-03T23:16:04.318Z,103071.00
2019-01-03T23:18:34.225Z,103071.67
2019-01-03T23:21:03.423Z,103069.55
2019-01-03T23:23:32.760Z,103062.23
2019-01-03T23:26:07.126Z,103067.59
2019-01-03T23:28:36.491Z,103061.73
2019-01-03T23:31:05.968Z,103055.17
2019-01-03T23:33:35.245Z,103054.70
2019-01-03T23:36:04.741Z,103052.95
2019-01-03T23:38:34.227Z,103048.55
2019-01-03T23:41:04.017Z,103051.72
2019-01-03T23:43:33.857Z,103048.23
2019-01-03T23:46:03.067Z,103046.23
2019-01-03T23:48:34.139Z,103049.50
2019-01-03T23:51:03.410Z,103055.36
2019-01-03T23:53:33.321Z,103055.74
2019-01-03T23:56:02.829Z,103066.35
2019-01-03T23:58:32.004Z,103057.80
